Edinburg, Ohio
Current Conditions -  °F | °C
As of 3:40 PM on Friday 21 Nov 2014 (Local Time) from KPOV Reporting Station
Scattered Clouds Scattered Clouds  
Wind Chill: 17°   Ceiling: Unl
Heat Index: 25°   Visibility: 10mi
Dew Point:   Wind: 7mph
Humidity: 47%   Direction: 240°WSW
Pressure: 30.45"   Gusts: NA
Location:  41.0883°N, 81.2°W
Report Text: KPOV 212040Z AUTO 24006KT 10SM SCT036 M04/M14 A3045 RMK AO2 T10411140
Loading
Personal Weather Stations






























Interactive Weather Map New forecast layout! Learn more

10-Day Weather Forecast

Advertisements
Track Severe Weather on mobile